createdAt,value
2019-03-01T00:01:42.205Z,1.10
2019-03-01T00:04:13.246Z,1.25
2019-03-01T00:06:44.281Z,1.45
2019-03-01T00:09:35.126Z,1.90
2019-03-01T00:12:08.232Z,1.52
2019-03-01T00:14:41.502Z,1.00
2019-03-01T00:20:05.476Z,2.50
2019-03-01T00:22:48.642Z,1.20
2019-03-01T00:25:21.993Z,0.90
2019-03-01T00:28:06.407Z,2.15
2019-03-01T00:30:40.570Z,1.02
2019-03-01T00:33:14.395Z,1.00
2019-03-01T00:35:53.281Z,1.20
2019-03-01T00:38:50.450Z,1.30
2019-03-01T00:41:24.342Z,1.85
2019-03-01T00:43:58.646Z,1.70
2019-03-01T00:46:26.069Z,1.52
2019-03-01T00:48:53.496Z,3.37
2019-03-01T00:51:20.888Z,1.58
2019-03-01T00:53:48.295Z,1.10
2019-03-01T00:56:15.685Z,1.30
2019-03-01T00:58:43.099Z,1.30
2019-03-01T01:01:10.553Z,1.00
2019-03-01T01:03:38.129Z,1.52
2019-03-01T01:06:05.515Z,1.62
2019-03-01T01:08:32.904Z,1.25
2019-03-01T01:11:00.307Z,1.58
2019-03-01T01:13:27.698Z,1.25
2019-03-01T01:15:55.095Z,1.15
2019-03-01T01:18:22.495Z,1.40
2019-03-01T01:20:49.893Z,1.08
2019-03-01T01:23:17.304Z,1.00
2019-03-01T01:25:44.695Z,1.15
2019-03-01T01:28:12.103Z,2.40
2019-03-01T01:30:39.503Z,1.92
2019-03-01T01:33:06.986Z,1.37
2019-03-01T01:35:34.386Z,1.20
2019-03-01T01:38:01.869Z,1.23
2019-03-01T01:40:29.270Z,1.33
2019-03-01T01:42:56.682Z,1.52
2019-03-01T01:45:24.069Z,1.62
2019-03-01T01:47:51.551Z,0.85
2019-03-01T01:50:19.007Z,1.27
2019-03-01T01:52:46.391Z,1.00
2019-03-01T01:55:13.813Z,2.25
2019-03-01T01:57:41.479Z,1.12
2019-03-01T02:00:08.932Z,1.10
2019-03-01T02:02:36.314Z,1.10
2019-03-01T02:05:03.764Z,1.10
2019-03-01T02:07:31.182Z,0.90
2019-03-01T02:09:58.603Z,0.98
2019-03-01T02:12:26.050Z,1.00
2019-03-01T02:14:53.447Z,0.85
2019-03-01T02:17:20.843Z,1.10
2019-03-01T02:19:49.021Z,1.23
2019-03-01T02:22:16.468Z,1.50
2019-03-01T02:24:43.860Z,1.00
2019-03-01T02:27:16.642Z,1.15
2019-03-01T02:29:44.062Z,0.90
2019-03-01T02:32:11.455Z,0.80
2019-03-01T02:34:39.173Z,1.05
2019-03-01T02:37:06.560Z,1.10
2019-03-01T02:39:34.055Z,1.00
2019-03-01T02:42:01.567Z,0.80
2019-03-01T02:44:29.729Z,0.90
2019-03-01T02:46:57.130Z,1.17
2019-03-01T02:49:24.926Z,1.25
2019-03-01T02:51:52.323Z,2.00
2019-03-01T02:54:19.788Z,1.02
2019-03-01T02:56:47.141Z,1.20
2019-03-01T02:59:14.586Z,0.80
2019-03-01T03:01:42.042Z,4.05
2019-03-01T03:04:09.448Z,1.23
2019-03-01T03:06:38.800Z,1.27
2019-03-01T03:09:06.182Z,0.90
2019-03-01T03:11:33.611Z,1.20
2019-03-01T03:14:00.996Z,1.33
2019-03-01T03:16:28.419Z,1.17
2019-03-01T03:18:55.809Z,1.40
2019-03-01T03:21:23.239Z,1.10
2019-03-01T03:23:50.644Z,1.12
2019-03-01T03:26:18.074Z,1.05
2019-03-01T03:28:45.706Z,1.33
2019-03-01T03:31:13.116Z,1.20
2019-03-01T03:33:40.610Z,1.00
2019-03-01T03:36:08.004Z,0.98
2019-03-01T03:38:35.730Z,1.08
2019-03-01T03:41:03.136Z,1.05
2019-03-01T03:43:30.550Z,1.73
2019-03-01T03:45:57.987Z,1.12
2019-03-01T03:48:25.374Z,1.20
2019-03-01T03:50:52.760Z,2.10
2019-03-01T03:53:20.166Z,1.20
2019-03-01T03:55:47.567Z,1.30
2019-03-01T03:58:15.195Z,1.73
2019-03-01T04:00:42.652Z,1.02
2019-03-01T04:03:10.041Z,0.95
2019-03-01T04:05:37.451Z,1.10
2019-03-01T04:08:04.834Z,0.88
2019-03-01T04:10:32.258Z,1.65
2019-03-01T04:12:59.688Z,1.70
2019-03-01T04:15:27.112Z,1.50
2019-03-01T04:17:54.547Z,1.50
2019-03-01T04:20:21.956Z,2.33
2019-03-01T04:22:49.567Z,1.02
2019-03-01T04:25:17.001Z,1.25
2019-03-01T04:27:44.396Z,1.08
2019-03-01T04:30:12.417Z,1.85
2019-03-01T04:32:39.818Z,0.88
2019-03-01T04:35:07.230Z,1.90
2019-03-01T04:37:34.639Z,1.40
2019-03-01T04:40:02.045Z,1.40
2019-03-01T04:42:29.465Z,1.73
2019-03-01T04:44:56.854Z,1.12
2019-03-01T04:47:24.441Z,1.67
2019-03-01T04:49:51.851Z,1.12
2019-03-01T04:52:26.121Z,0.93
2019-03-01T04:54:53.537Z,1.35
2019-03-01T04:57:20.928Z,2.00
2019-03-01T04:59:48.360Z,1.42
2019-03-01T05:02:15.748Z,1.70
2019-03-01T05:04:43.157Z,2.47
2019-03-01T05:07:10.563Z,1.10
2019-03-01T05:09:37.980Z,0.85
2019-03-01T05:12:05.463Z,1.73
2019-03-01T05:14:32.882Z,1.30
2019-03-01T05:17:00.287Z,1.37
2019-03-01T05:19:27.725Z,0.90
2019-03-01T05:21:55.295Z,1.23
2019-03-01T05:24:22.722Z,1.75
2019-03-01T05:26:50.152Z,1.65
2019-03-01T05:29:17.972Z,1.00
2019-03-01T05:31:45.542Z,1.60
2019-03-01T05:34:13.129Z,1.50
2019-03-01T05:36:40.647Z,1.10
2019-03-01T05:39:08.339Z,1.67
2019-03-01T05:41:35.742Z,0.90
2019-03-01T05:44:03.133Z,2.00
2019-03-01T05:46:30.539Z,1.60
2019-03-01T05:48:58.049Z,1.48
2019-03-01T05:51:25.430Z,1.27
2019-03-01T05:53:52.871Z,1.70
2019-03-01T05:56:20.273Z,1.30
2019-03-01T05:58:47.677Z,1.77
2019-03-01T06:01:15.137Z,1.35
2019-03-01T06:06:41.552Z,3.30
2019-03-01T06:09:20.603Z,2.45
2019-03-01T06:11:55.648Z,2.85
2019-03-01T06:14:32.614Z,1.55
2019-03-01T06:17:15.941Z,2.55
2019-03-01T06:19:59.778Z,2.62
2019-03-01T06:22:37.173Z,1.95
2019-03-01T06:25:11.391Z,2.78
2019-03-01T06:27:44.613Z,2.87
2019-03-01T06:30:28.744Z,13.60
2019-03-01T06:33:05.691Z,2.85
2019-03-01T06:35:39.108Z,1.50
2019-03-01T06:44:13.825Z,3.30
2019-03-01T06:49:43.384Z,3.42
2019-03-01T06:52:10.776Z,2.80
2019-03-01T06:54:38.786Z,1.92
2019-03-01T06:57:06.198Z,2.50
2019-03-01T06:59:33.656Z,2.20
2019-03-01T07:02:02.822Z,1.80
2019-03-01T07:04:28.687Z,1.77
2019-03-01T07:06:56.105Z,1.77
2019-03-01T07:09:23.628Z,2.47
2019-03-01T07:11:51.150Z,1.50
2019-03-01T07:14:18.559Z,1.30
2019-03-01T07:16:45.965Z,1.23
2019-03-01T07:19:13.643Z,2.20
2019-03-01T07:21:41.059Z,1.73
2019-03-01T07:24:08.620Z,1.60
2019-03-01T07:26:35.947Z,1.90
2019-03-01T07:29:03.386Z,1.80
2019-03-01T07:31:30.945Z,5.57
2019-03-01T07:33:58.343Z,3.03
2019-03-01T07:36:25.758Z,1.90
2019-03-01T07:38:53.180Z,2.97
2019-03-01T07:41:20.604Z,2.40
2019-03-01T07:43:48.090Z,2.03
2019-03-01T07:46:15.545Z,1.70
2019-03-01T07:48:43.053Z,1.80
2019-03-01T07:51:10.436Z,2.53
2019-03-01T07:53:41.878Z,1.85
2019-03-01T07:56:05.536Z,1.35
2019-03-01T07:58:33.041Z,2.25
2019-03-01T08:01:00.451Z,2.37
2019-03-01T08:03:27.846Z,1.00
2019-03-01T08:05:55.282Z,2.00
2019-03-01T08:08:22.698Z,1.40
2019-03-01T08:10:50.168Z,1.30
2019-03-01T08:13:18.443Z,1.80
2019-03-01T08:15:45.917Z,1.83
2019-03-01T08:18:12.728Z,2.00
2019-03-01T08:20:40.324Z,2.50
2019-03-01T08:23:07.782Z,1.45
2019-03-01T08:25:35.207Z,1.75
2019-03-01T08:28:03.523Z,1.62
2019-03-01T08:30:31.182Z,1.60
2019-03-01T08:32:58.598Z,2.90
2019-03-01T08:35:28.268Z,2.10
2019-03-01T08:37:54.358Z,3.15
2019-03-01T08:40:21.520Z,1.35
2019-03-01T08:42:49.107Z,1.60
2019-03-01T08:45:16.892Z,1.55
2019-03-01T08:47:44.401Z,1.20
2019-03-01T08:50:11.949Z,1.73
2019-03-01T08:52:40.461Z,2.20
2019-03-01T08:55:06.817Z,1.98
2019-03-01T08:57:43.751Z,2.42
2019-03-01T09:00:02.438Z,2.00
2019-03-01T09:02:29.185Z,2.00
2019-03-01T09:04:56.784Z,3.00
2019-03-01T09:07:27.224Z,2.90
2019-03-01T09:09:53.666Z,2.55
2019-03-01T09:12:19.258Z,1.80
2019-03-01T09:14:47.096Z,1.85
2019-03-01T09:17:14.499Z,1.90
2019-03-01T09:19:41.959Z,1.15
2019-03-01T09:22:10.097Z,1.70
2019-03-01T09:24:37.530Z,2.17
2019-03-01T09:27:05.004Z,1.48
2019-03-01T09:29:41.218Z,1.73
2019-03-01T09:31:59.979Z,1.52
2019-03-01T09:34:28.693Z,1.60
2019-03-01T09:36:55.724Z,1.62
2019-03-01T09:39:22.318Z,1.45
2019-03-01T09:41:49.773Z,1.40
2019-03-01T09:44:17.318Z,1.70
2019-03-01T09:46:44.722Z,1.20
2019-03-01T09:49:12.137Z,1.42
2019-03-01T09:51:39.540Z,1.52
2019-03-01T09:54:09.381Z,4.03
2019-03-01T09:56:34.404Z,1.25
2019-03-01T09:59:01.843Z,0.90
2019-03-01T10:01:29.272Z,1.30
2019-03-01T10:03:56.688Z,1.30
2019-03-01T10:06:24.107Z,1.83
2019-03-01T10:08:51.539Z,1.45
2019-03-01T10:11:19.211Z,1.80
2019-03-01T10:13:46.602Z,1.08
2019-03-01T10:16:14.665Z,1.48
2019-03-01T10:18:42.075Z,2.37
2019-03-01T10:21:09.506Z,1.75
2019-03-01T10:23:36.916Z,3.45
2019-03-01T10:26:04.348Z,0.80
2019-03-01T10:28:31.730Z,0.80
2019-03-01T10:30:59.182Z,0.80
2019-03-01T10:33:26.673Z,0.70
2019-03-01T10:35:54.103Z,0.80
2019-03-01T10:38:21.550Z,1.20
2019-03-01T10:40:49.070Z,1.12
2019-03-01T10:43:16.608Z,1.05
2019-03-01T10:45:44.026Z,1.33
2019-03-01T10:48:11.418Z,1.80
2019-03-01T10:50:38.868Z,0.70
2019-03-01T10:53:06.294Z,2.03
2019-03-01T10:55:33.748Z,0.80
2019-03-01T10:58:01.532Z,0.85
2019-03-01T11:00:28.943Z,0.90
2019-03-01T11:02:56.353Z,0.80
2019-03-01T11:05:23.751Z,2.95
2019-03-01T11:07:51.187Z,1.12
2019-03-01T11:10:19.527Z,0.80
2019-03-01T11:12:47.316Z,1.48
2019-03-01T11:15:14.779Z,1.08
2019-03-01T11:17:42.285Z,0.60
2019-03-01T11:20:10.636Z,0.85
2019-03-01T11:22:38.076Z,1.00
2019-03-01T11:25:05.591Z,0.80
2019-03-01T11:27:32.979Z,1.00
2019-03-01T11:30:00.386Z,0.75
2019-03-01T11:32:28.065Z,0.80
2019-03-01T11:34:55.626Z,0.90
2019-03-01T11:37:23.046Z,1.25
2019-03-01T11:39:50.556Z,1.02
2019-03-01T11:42:18.026Z,0.70
2019-03-01T11:44:45.467Z,0.85
2019-03-01T11:47:12.853Z,0.80
2019-03-01T11:49:40.286Z,1.10
2019-03-01T11:52:07.723Z,0.90
2019-03-01T11:54:35.119Z,1.17
2019-03-01T11:57:02.548Z,1.00
2019-03-01T11:59:29.984Z,1.02
2019-03-01T12:01:57.446Z,0.80
2019-03-01T12:04:24.843Z,0.80
2019-03-01T12:06:52.439Z,0.93
2019-03-01T12:09:19.890Z,0.80
2019-03-01T12:11:47.285Z,1.33
2019-03-01T12:14:15.589Z,0.90
2019-03-01T12:16:43.114Z,1.10
2019-03-01T12:19:10.564Z,1.15
2019-03-01T12:21:37.956Z,0.77
2019-03-01T12:24:05.430Z,1.40
2019-03-01T12:26:32.899Z,1.70
2019-03-01T12:29:00.365Z,0.90
2019-03-01T12:31:27.864Z,0.73
2019-03-01T12:33:55.255Z,0.82
2019-03-01T12:36:22.677Z,0.90
2019-03-01T12:38:50.094Z,1.67
2019-03-01T12:41:17.509Z,0.68
2019-03-01T12:43:45.060Z,0.85
2019-03-01T12:46:12.518Z,0.98
2019-03-01T12:48:39.909Z,0.70
2019-03-01T12:51:07.600Z,1.05
2019-03-01T12:53:35.270Z,1.20
2019-03-01T12:56:02.682Z,0.95
2019-03-01T12:58:30.088Z,0.98
2019-03-01T13:00:57.499Z,1.23
2019-03-01T13:03:24.917Z,0.88
2019-03-01T13:05:52.432Z,1.65
2019-03-01T13:08:19.894Z,0.70
2019-03-01T13:10:47.284Z,0.70
2019-03-01T13:13:14.772Z,0.85
2019-03-01T13:15:45.437Z,0.73
2019-03-01T13:18:15.742Z,0.82
2019-03-01T13:20:38.395Z,0.75
2019-03-01T13:23:06.210Z,0.50
2019-03-01T13:25:33.217Z,0.70
2019-03-01T13:28:00.623Z,0.90
2019-03-01T13:30:28.042Z,1.20
2019-03-01T13:32:58.886Z,0.77
2019-03-01T13:35:26.111Z,0.75
2019-03-01T13:37:52.013Z,1.12
2019-03-01T13:40:20.913Z,0.90
2019-03-01T13:42:47.272Z,1.50
2019-03-01T13:45:15.040Z,0.93
2019-03-01T13:47:44.034Z,1.15
2019-03-01T13:50:09.417Z,1.25
2019-03-01T13:52:36.924Z,1.10
2019-03-01T13:55:04.327Z,1.50
2019-03-01T13:57:31.916Z,1.00
2019-03-01T13:59:59.299Z,1.20
2019-03-01T14:02:26.747Z,1.27
2019-03-01T14:04:54.190Z,1.00
2019-03-01T14:07:21.667Z,0.80
2019-03-01T14:09:49.063Z,1.20
2019-03-01T14:12:16.644Z,1.30
2019-03-01T14:14:44.140Z,0.90
2019-03-01T14:17:11.691Z,0.80
2019-03-01T14:19:42.169Z,1.05
2019-03-01T14:22:10.591Z,0.65
2019-03-01T14:24:34.281Z,0.82
2019-03-01T14:27:01.695Z,1.17
2019-03-01T14:29:29.070Z,0.80
2019-03-01T14:31:56.505Z,1.20
2019-03-01T14:34:24.019Z,1.25
2019-03-01T14:36:51.441Z,0.70
2019-03-01T14:39:18.876Z,0.95
2019-03-01T14:41:47.242Z,1.37
2019-03-01T14:44:14.627Z,2.78
2019-03-01T14:46:42.223Z,1.10
2019-03-01T14:49:09.723Z,1.40
2019-03-01T14:51:37.170Z,1.20
2019-03-01T14:54:07.058Z,1.48
2019-03-01T14:56:34.923Z,0.98
2019-03-01T14:59:09.203Z,1.77
2019-03-01T15:01:38.172Z,1.60
2019-03-01T15:04:05.676Z,1.20
2019-03-01T15:06:33.144Z,1.37
2019-03-01T15:09:00.572Z,0.90
2019-03-01T15:11:28.180Z,1.05
2019-03-01T15:13:55.588Z,2.83
2019-03-01T15:16:23.084Z,1.40
2019-03-01T15:18:50.521Z,1.40
2019-03-01T15:21:17.935Z,1.23
2019-03-01T15:23:45.362Z,1.40
2019-03-01T15:26:12.850Z,0.70
2019-03-01T15:28:43.951Z,2.12
2019-03-01T15:31:11.419Z,1.12
2019-03-01T15:33:38.820Z,1.00
2019-03-01T15:36:06.405Z,1.50
2019-03-01T15:38:33.808Z,0.80
2019-03-01T15:41:03.601Z,1.45
2019-03-01T15:43:29.891Z,1.30
2019-03-01T15:45:56.057Z,0.95
2019-03-01T15:48:23.498Z,1.30
2019-03-01T15:50:50.921Z,0.80
2019-03-01T15:53:21.501Z,1.00
2019-03-01T15:55:45.785Z,0.80
2019-03-01T15:58:14.285Z,1.37
2019-03-01T16:00:41.678Z,1.08
2019-03-01T16:03:09.175Z,0.80
2019-03-01T16:05:37.517Z,1.15
2019-03-01T16:08:05.485Z,0.80
2019-03-01T16:10:32.934Z,1.05
2019-03-01T16:12:59.302Z,1.10
2019-03-01T16:15:26.789Z,0.70
2019-03-01T16:17:54.325Z,0.80
2019-03-01T16:20:25.114Z,0.88
2019-03-01T16:22:51.160Z,1.05
2019-03-01T16:25:17.207Z,1.10
2019-03-01T16:27:44.333Z,1.25
2019-03-01T16:30:14.596Z,0.80
2019-03-01T16:32:40.838Z,0.80
2019-03-01T16:35:08.586Z,0.80
2019-03-01T16:37:37.784Z,0.90
2019-03-01T16:40:04.126Z,1.55
2019-03-01T16:42:38.171Z,1.10
2019-03-01T16:44:59.029Z,1.30
2019-03-01T16:47:26.451Z,1.10
2019-03-01T16:49:53.866Z,0.95
2019-03-01T16:52:21.287Z,1.50
2019-03-01T16:54:51.468Z,1.73
2019-03-01T16:57:16.091Z,2.55
2019-03-01T16:59:43.741Z,1.80
2019-03-01T17:02:11.010Z,2.35
2019-03-01T17:04:38.440Z,1.87
2019-03-01T17:07:05.845Z,1.67
2019-03-01T17:09:33.284Z,1.65
2019-03-01T17:12:00.733Z,1.08
2019-03-01T17:14:28.130Z,1.10
2019-03-01T17:16:56.284Z,1.17
2019-03-01T17:19:23.743Z,1.90
2019-03-01T17:21:51.150Z,2.10
2019-03-01T17:24:17.754Z,1.25
2019-03-01T17:26:45.152Z,1.73
2019-03-01T17:29:12.632Z,1.90
2019-03-01T17:31:40.047Z,1.98
2019-03-01T17:34:07.507Z,0.98
2019-03-01T17:36:35.124Z,1.17
2019-03-01T17:39:02.604Z,1.20
2019-03-01T17:41:30.001Z,1.67
2019-03-01T17:43:57.400Z,1.52
2019-03-01T17:46:25.479Z,1.87
2019-03-01T17:48:54.198Z,2.03
2019-03-01T17:51:21.185Z,2.55
2019-03-01T17:53:47.324Z,1.20
2019-03-01T17:56:14.653Z,1.05
2019-03-01T17:58:43.038Z,0.90
2019-03-01T18:01:10.420Z,1.65
2019-03-01T18:03:37.830Z,1.83
2019-03-01T18:06:05.387Z,1.25
2019-03-01T18:08:35.868Z,1.30
2019-03-01T18:11:00.331Z,1.30
2019-03-01T18:13:27.939Z,1.25
2019-03-01T18:15:55.400Z,0.90
2019-03-01T18:18:22.823Z,1.00
2019-03-01T18:20:50.237Z,1.58
2019-03-01T18:23:17.628Z,1.60
2019-03-01T18:25:45.034Z,1.10
2019-03-01T18:28:12.531Z,1.15
2019-03-01T18:30:40.091Z,2.28
2019-03-01T18:33:07.607Z,2.25
2019-03-01T18:35:35.059Z,2.62
2019-03-01T18:38:02.518Z,2.17
2019-03-01T18:40:29.980Z,1.17
2019-03-01T18:42:57.526Z,1.48
2019-03-01T18:45:24.993Z,1.83
2019-03-01T18:47:52.385Z,1.60
2019-03-01T18:50:36.038Z,1.83
2019-03-01T18:53:04.125Z,1.70
2019-03-01T18:55:30.992Z,1.65
2019-03-01T18:57:58.397Z,2.72
2019-03-01T19:00:32.564Z,1.60
2019-03-01T19:03:01.063Z,2.28
2019-03-01T19:05:25.678Z,1.30
2019-03-01T19:07:53.074Z,2.55
2019-03-01T19:10:20.465Z,2.17
2019-03-01T19:12:48.620Z,2.55
2019-03-01T19:15:16.280Z,2.30
2019-03-01T19:17:44.500Z,1.35
2019-03-01T19:20:10.954Z,2.05
2019-03-01T19:22:38.457Z,2.12
2019-03-01T19:25:05.865Z,2.62
2019-03-01T19:27:33.348Z,2.53
2019-03-01T19:30:00.790Z,1.65
2019-03-01T19:32:28.211Z,1.83
2019-03-01T19:34:55.595Z,2.42
2019-03-01T19:37:23.158Z,2.55
2019-03-01T19:39:50.617Z,3.47
2019-03-01T19:42:18.024Z,1.95
2019-03-01T19:44:45.445Z,2.47
2019-03-01T19:47:12.878Z,3.50
2019-03-01T19:49:40.286Z,2.37
2019-03-01T19:52:09.415Z,2.70
2019-03-01T19:54:35.697Z,2.53
2019-03-01T19:57:03.025Z,1.98
2019-03-01T19:59:30.407Z,2.67
2019-03-01T20:01:58.048Z,2.20
2019-03-01T20:04:25.564Z,2.05
2019-03-01T20:06:52.957Z,2.40
2019-03-01T20:09:20.417Z,1.83
2019-03-01T20:11:47.829Z,3.00
2019-03-01T20:14:16.887Z,3.95
2019-03-01T20:16:42.731Z,2.60
2019-03-01T20:19:10.232Z,2.37
2019-03-01T20:21:37.914Z,2.60
2019-03-01T20:24:06.836Z,2.30
2019-03-01T20:26:32.718Z,1.52
2019-03-01T20:29:00.133Z,2.08
2019-03-01T20:31:27.584Z,1.85
2019-03-01T20:33:54.958Z,2.08
2019-03-01T20:36:22.424Z,2.25
2019-03-01T20:38:49.833Z,2.45
2019-03-01T20:41:17.230Z,2.17
2019-03-01T20:43:44.648Z,2.50
2019-03-01T20:48:45.804Z,1.70
2019-03-01T20:51:13.223Z,2.20
2019-03-01T20:53:40.676Z,3.97
2019-03-01T20:56:09.944Z,2.50
2019-03-01T20:58:39.397Z,2.75
2019-03-01T21:01:03.311Z,3.05
2019-03-01T21:03:30.775Z,2.85
2019-03-01T21:05:58.177Z,3.12
2019-03-01T21:08:28.797Z,3.47
2019-03-01T21:10:53.159Z,2.15
2019-03-01T21:13:20.638Z,2.47
2019-03-01T21:15:48.140Z,2.40
2019-03-01T21:18:15.663Z,2.60
2019-03-01T21:23:16.834Z,3.85
2019-03-01T21:25:44.267Z,3.50
2019-03-01T21:28:11.653Z,5.18
2019-03-01T21:30:39.118Z,5.28
2019-03-01T21:33:06.515Z,5.82
2019-03-01T21:35:33.923Z,5.35
2019-03-01T21:38:01.350Z,4.18
2019-03-01T21:40:31.386Z,4.60
2019-03-01T21:42:59.736Z,5.68
2019-03-01T21:45:23.607Z,4.07
2019-03-01T21:47:51.135Z,6.47
2019-03-01T21:50:18.541Z,4.20
2019-03-01T21:52:45.926Z,4.05
2019-03-01T21:55:15.831Z,5.15
2019-03-01T21:57:44.188Z,3.80
2019-03-01T22:00:15.150Z,3.22
2019-03-01T22:02:42.556Z,3.30
2019-03-01T22:05:10.314Z,2.42
2019-03-01T22:07:38.197Z,3.10
2019-03-01T22:10:05.215Z,3.35
2019-03-01T22:12:32.633Z,2.78
2019-03-01T22:15:00.044Z,3.40
2019-03-01T22:17:27.464Z,4.22
2019-03-01T22:19:54.942Z,4.18
2019-03-01T22:22:22.440Z,3.40
2019-03-01T22:24:49.928Z,2.78
2019-03-01T22:27:17.348Z,4.15
2019-03-01T22:29:47.279Z,3.60
2019-03-01T22:32:12.259Z,4.68
2019-03-01T22:34:39.602Z,3.55
2019-03-01T22:37:07.003Z,3.90
2019-03-01T22:39:34.446Z,2.83
2019-03-01T22:42:01.849Z,3.83
2019-03-01T22:44:29.266Z,3.65
2019-03-01T22:46:57.926Z,4.05
2019-03-01T22:49:24.100Z,4.53
2019-03-01T22:51:52.914Z,4.05
2019-03-01T22:54:19.098Z,4.20
2019-03-01T22:56:48.482Z,3.92
2019-03-01T22:59:14.216Z,4.07
2019-03-01T23:01:41.638Z,3.03
2019-03-01T23:04:09.803Z,3.22
2019-03-01T23:06:37.253Z,4.12
2019-03-01T23:09:10.251Z,4.45
2019-03-01T23:11:32.509Z,4.70
2019-03-01T23:13:59.587Z,3.55
2019-03-01T23:16:27.091Z,3.85
2019-03-01T23:18:56.843Z,6.00
2019-03-01T23:21:21.969Z,6.75
2019-03-01T23:23:49.400Z,5.78
2019-03-01T23:26:18.663Z,5.50
2019-03-01T23:28:44.660Z,4.53
2019-03-01T23:31:11.774Z,5.70
2019-03-01T23:33:39.203Z,5.45
2019-03-01T23:36:06.617Z,5.10
2019-03-01T23:38:34.030Z,5.57
2019-03-01T23:41:01.502Z,3.53
2019-03-01T23:43:30.886Z,5.40
2019-03-01T23:45:56.338Z,4.62
2019-03-01T23:48:24.159Z,5.43
2019-03-01T23:50:51.549Z,5.60
2019-03-01T23:53:18.955Z,5.37
2019-03-01T23:55:46.362Z,3.78
2019-03-01T23:58:15.838Z,3.37
